Time;durP1;ratioP1;P1;durP2;ratioP2;P2;SDS_P1;SDS_P2;PMS_P1;PMS_P2;Temp;Humidity;BMP_temperature;BMP_pressure;BME280_temperature;BME280_humidity;BME280_pressure;Samples;Min_cycle;Max_cycle;Signal;HPM_P1;HPM_P2
2022/01/20 00:01:21;;;;;;;37.20;20.43;;;2.20;99.90;;;;;;5169442;27;20474;-77
2022/01/20 00:03:50;;;;;;;31.43;21.03;;;2.10;99.90;;;;;;5169319;27;20471;-72
2022/01/20 00:09:23;;;;;;;29.57;20.47;;;2.10;99.90;;;;;;5169596;27;20529;-70
2022/01/20 00:25:57;;;;;;;36.50;20.03;;;1.90;99.90;;;;;;5168835;27;20433;-73
2022/01/20 00:28:39;;;;;;;35.10;19.90;;;1.90;99.90;;;;;;5169038;27;20445;-76
2022/01/20 00:31:13;;;;;;;29.57;18.70;;;1.80;99.90;;;;;;5169008;27;20451;-77
2022/01/20 00:33:44;;;;;;;28.43;17.93;;;1.80;99.90;;;;;;5168746;27;20485;-75
2022/01/20 00:38:56;;;;;;;28.40;17.90;;;1.50;99.90;;;;;;5168079;27;20491;-75
2022/01/20 00:41:24;;;;;;;28.03;17.40;;;1.30;99.90;;;;;;5168746;27;20460;-75
2022/01/20 00:43:52;;;;;;;33.40;18.87;;;1.50;99.90;;;;;;5168459;27;20469;-70
2022/01/20 00:46:19;;;;;;;28.37;18.80;;;1.40;99.90;;;;;;5168768;27;20448;-72
2022/01/20 00:48:47;;;;;;;25.63;18.63;;;1.40;99.90;;;;;;5168776;27;20444;-76
2022/01/20 00:51:14;;;;;;;30.10;18.00;;;1.50;99.90;;;;;;5159480;27;20906;-72
2022/01/20 00:53:44;;;;;;;27.70;17.73;;;1.50;99.90;;;;;;5154827;27;20518;-74
2022/01/20 00:56:12;;;;;;;29.70;17.07;;;1.70;99.90;;;;;;5154260;27;20486;-72
2022/01/20 00:58:39;;;;;;;32.90;15.63;;;1.70;99.90;;;;;;5154494;27;20569;-74
2022/01/20 01:01:07;;;;;;;24.70;15.93;;;1.70;99.90;;;;;;5153993;27;20458;-74
2022/01/20 01:03:35;;;;;;;25.27;16.60;;;1.70;99.90;;;;;;5154205;27;20481;-77
2022/01/20 01:06:14;;;;;;;26.50;15.70;;;1.80;99.90;;;;;;5154338;27;20449;-72
2022/01/20 01:08:41;;;;;;;22.40;15.27;;;1.70;99.90;;;;;;5154427;27;20448;-76
2022/01/20 01:11:08;;;;;;;29.50;16.20;;;1.70;99.90;;;;;;5154442;27;20454;-73
2022/01/20 01:13:35;;;;;;;22.10;15.43;;;1.70;99.90;;;;;;5154137;27;20566;-75
2022/01/20 01:16:04;;;;;;;24.80;15.10;;;1.80;99.90;;;;;;5154119;27;20946;-77
2022/01/20 01:21:28;;;;;;;21.47;14.50;;;2.00;99.40;;;;;;5153767;27;20537;-73
2022/01/20 01:23:55;;;;;;;30.03;15.03;;;1.90;99.80;;;;;;5153209;27;20548;-73
2022/01/20 01:26:26;;;;;;;28.87;16.13;;;1.80;99.90;;;;;;5153689;27;20446;-75
2022/01/20 01:28:56;;;;;;;30.60;17.00;;;1.80;99.90;;;;;;5153815;27;20495;-74
2022/01/20 01:31:34;;;;;;;31.93;15.50;;;1.80;99.90;;;;;;5153852;27;20510;-75
2022/01/20 01:34:06;;;;;;;28.23;16.87;;;1.80;99.90;;;;;;5153618;27;20785;-73
2022/01/20 01:36:47;;;;;;;24.00;15.23;;;1.80;99.90;;;;;;5153552;27;20450;-71
2022/01/20 01:39:15;;;;;;;24.17;15.40;;;1.90;99.90;;;;;;5153019;27;20889;-76
2022/01/20 01:41:43;;;;;;;28.80;16.23;;;1.80;99.90;;;;;;5153237;27;20828;-73
2022/01/20 01:44:11;;;;;;;28.90;15.20;;;1.60;99.90;;;;;;5153548;27;20473;-75
2022/01/20 01:46:39;;;;;;;23.37;16.40;;;1.70;99.90;;;;;;5153437;27;20477;-72
2022/01/20 01:49:07;;;;;;;25.43;15.97;;;1.70;99.90;;;;;;5153111;27;20471;-76
2022/01/20 01:51:35;;;;;;;23.67;16.03;;;1.70;99.90;;;;;;5153302;27;20457;-75
2022/01/20 01:54:02;;;;;;;30.60;16.27;;;1.60;99.90;;;;;;5153332;27;20869;-72
2022/01/20 01:56:29;;;;;;;36.47;20.13;;;1.70;99.90;;;;;;5153448;27;20437;-74
2022/01/20 01:58:56;;;;;;;35.37;20.87;;;1.30;99.90;;;;;;5152845;27;20502;-70
2022/01/20 02:01:25;;;;;;;31.37;18.47;;;1.30;99.90;;;;;;5152766;27;20848;-75
2022/01/20 02:04:00;;;;;;;29.23;19.13;;;1.30;99.90;;;;;;5152144;27;20489;-73
2022/01/20 02:06:54;;;;;;;29.37;18.50;;;1.10;99.90;;;;;;5153201;27;20475;-78
2022/01/20 02:09:38;;;;;;;40.60;18.00;;;1.10;99.90;;;;;;5152530;27;20453;-76
2022/01/20 02:17:56;;;;;;;28.10;18.00;;;1.10;99.90;;;;;;5152756;27;20434;-70
2022/01/20 02:20:25;;;;;;;32.10;18.90;;;1.10;99.90;;;;;;5152475;27;20595;-71
2022/01/20 02:22:52;;;;;;;35.53;19.30;;;1.20;99.90;;;;;;5152833;27;20454;-70
2022/01/20 02:25:20;;;;;;;33.30;19.60;;;1.20;99.90;;;;;;5152644;27;20530;-73
2022/01/20 02:27:48;;;;;;;29.87;18.77;;;1.10;99.90;;;;;;5152845;27;20450;-73
2022/01/20 02:30:16;;;;;;;29.50;17.73;;;1.20;99.90;;;;;;5152748;27;20453;-71
2022/01/20 02:32:51;;;;;;;30.73;18.57;;;1.10;99.90;;;;;;5152225;27;20544;-75
2022/01/20 02:35:18;;;;;;;26.63;18.43;;;1.10;99.90;;;;;;5151816;27;20554;-70
2022/01/20 02:37:49;;;;;;;28.13;18.43;;;1.10;99.90;;;;;;5155158;27;20454;-73
2022/01/20 02:40:35;;;;;;;29.53;18.87;;;1.20;99.90;;;;;;5154847;27;20498;-70
2022/01/20 02:45:46;;;;;;;29.20;18.13;;;1.30;99.90;;;;;;5158429;27;20518;-73
2022/01/20 02:48:14;;;;;;;31.30;17.10;;;1.30;99.90;;;;;;5152392;27;20453;-75
2022/01/20 02:50:41;;;;;;;28.30;18.90;;;1.20;99.90;;;;;;5152513;27;20490;-69
2022/01/20 02:53:09;;;;;;;27.83;17.17;;;1.20;99.90;;;;;;5152222;27;20847;-73
2022/01/20 02:55:37;;;;;;;28.40;17.07;;;1.30;99.90;;;;;;5152352;27;20459;-74
2022/01/20 02:58:04;;;;;;;24.33;17.97;;;1.30;99.90;;;;;;5152062;27;20453;-75
2022/01/20 03:00:33;;;;;;;34.93;19.50;;;1.30;99.90;;;;;;5152072;27;20509;-74
2022/01/20 03:03:00;;;;;;;27.93;20.00;;;1.20;99.90;;;;;;5152008;27;20453;-75
2022/01/20 03:05:30;;;;;;;30.43;20.00;;;1.00;99.90;;;;;;5152247;27;20444;-75
2022/01/20 03:08:00;;;;;;;31.63;20.27;;;1.10;99.90;;;;;;5152041;27;20445;-75
2022/01/20 03:10:28;;;;;;;35.60;19.43;;;1.10;99.90;;;;;;5151972;27;20445;-71
2022/01/20 03:12:56;;;;;;;27.77;18.13;;;1.10;99.90;;;;;;5152152;27;20823;-73
2022/01/20 03:15:24;;;;;;;27.87;18.83;;;1.10;99.90;;;;;;5151468;27;20552;-72
2022/01/20 03:17:51;;;;;;;26.93;18.47;;;1.10;99.90;;;;;;5151966;27;20489;-77
2022/01/20 03:20:19;;;;;;;32.10;20.47;;;0.90;99.90;;;;;;5151545;27;20486;-76
2022/01/20 03:22:46;;;;;;;29.67;18.70;;;0.90;99.90;;;;;;5151344;27;20551;-75
2022/01/20 03:25:13;;;;;;;29.47;18.67;;;0.90;99.90;;;;;;5151781;27;20468;-73
2022/01/20 03:27:41;;;;;;;31.73;19.40;;;0.90;99.90;;;;;;5151834;27;20503;-73
2022/01/20 03:30:09;;;;;;;30.70;20.30;;;0.90;99.90;;;;;;5151145;27;20449;-77
2022/01/20 03:32:37;;;;;;;25.53;18.50;;;0.90;99.90;;;;;;5151713;27;20921;-71
2022/01/20 03:35:07;;;;;;;28.30;19.17;;;1.00;99.90;;;;;;5151625;27;20939;-71
2022/01/20 03:37:34;;;;;;;23.90;18.23;;;1.10;99.90;;;;;;5151260;27;20549;-73
2022/01/20 03:40:01;;;;;;;27.40;18.20;;;1.00;99.90;;;;;;5150763;27;20881;-75
2022/01/20 03:42:29;;;;;;;25.27;18.13;;;0.90;99.90;;;;;;5151668;27;20445;-75
2022/01/20 03:44:57;;;;;;;31.00;18.30;;;0.90;99.90;;;;;;5151417;27;21051;-72
2022/01/20 03:47:26;;;;;;;26.57;17.23;;;0.90;99.90;;;;;;5151101;27;20502;-70
2022/01/20 03:50:05;;;;;;;27.10;16.80;;;0.90;99.90;;;;;;5151156;27;20450;-71
2022/01/20 03:52:33;;;;;;;29.70;17.63;;;0.90;99.90;;;;;;5151117;27;20455;-71
2022/01/20 03:55:00;;;;;;;32.37;18.80;;;1.00;99.90;;;;;;5151393;27;20527;-78
2022/01/20 03:57:27;;;;;;;22.43;17.97;;;0.80;99.90;;;;;;5151527;27;20441;-71
2022/01/20 03:59:54;;;;;;;25.37;17.40;;;0.90;99.90;;;;;;5151206;27;20484;-73
2022/01/20 04:02:23;;;;;;;25.20;17.20;;;0.80;99.90;;;;;;5150825;27;20453;-72
2022/01/20 04:04:50;;;;;;;27.73;17.20;;;0.90;99.90;;;;;;5150568;27;20989;-76
2022/01/20 04:07:17;;;;;;;26.60;16.30;;;0.80;99.90;;;;;;5150984;27;20457;-74
2022/01/20 04:09:44;;;;;;;25.03;16.23;;;1.00;99.90;;;;;;5150978;27;20803;-73
2022/01/20 04:12:11;;;;;;;22.77;15.20;;;1.00;99.90;;;;;;5150714;27;20474;-71
2022/01/20 04:14:45;;;;;;;27.07;15.80;;;0.90;99.90;;;;;;5151013;27;20863;-74
2022/01/20 04:17:17;;;;;;;26.70;14.40;;;1.00;99.90;;;;;;5151285;27;20819;-74
2022/01/20 04:19:46;;;;;;;26.73;18.13;;;0.90;99.90;;;;;;5150903;27;20450;-72
2022/01/20 04:22:14;;;;;;;25.70;18.63;;;0.90;99.90;;;;;;5151055;27;20861;-76
2022/01/20 04:24:41;;;;;;;23.60;17.07;;;0.80;99.90;;;;;;5151000;27;20484;-75
2022/01/20 04:27:08;;;;;;;32.10;17.83;;;0.80;99.90;;;;;;5153711;27;20449;-76
2022/01/20 04:29:35;;;;;;;40.40;20.20;;;0.80;99.90;;;;;;5154511;27;20909;-75
2022/01/20 04:32:02;;;;;;;28.23;20.00;;;0.60;99.90;;;;;;5154706;27;20453;-72
2022/01/20 04:34:29;;;;;;;29.70;18.80;;;0.60;99.90;;;;;;5154651;27;20479;-74
2022/01/20 04:37:00;;;;;;;24.53;17.10;;;0.70;99.90;;;;;;5154612;27;20937;-73
2022/01/20 04:39:31;;;;;;;26.43;18.00;;;0.80;99.90;;;;;;5153962;27;20500;-72
2022/01/20 04:41:58;;;;;;;33.97;20.40;;;0.80;99.90;;;;;;5154370;27;20484;-75
2022/01/20 04:44:41;;;;;;;32.33;19.30;;;0.70;99.90;;;;;;5154558;27;20473;-76
2022/01/20 04:47:19;;;;;;;26.43;17.63;;;0.70;99.90;;;;;;5154763;27;20491;-74
2022/01/20 04:58:01;;;;;;;27.07;16.60;;;0.90;99.90;;;;;;5154935;27;20436;-73
2022/01/20 05:00:28;;;;;;;33.77;17.23;;;0.90;99.90;;;;;;5154096;27;20487;-73
2022/01/20 05:02:55;;;;;;;27.83;16.97;;;0.90;99.90;;;;;;5154385;27;20445;-75
2022/01/20 05:05:22;;;;;;;25.60;18.03;;;0.90;99.90;;;;;;5153985;27;20592;-72
2022/01/20 05:07:51;;;;;;;25.37;16.00;;;0.70;99.90;;;;;;5154083;27;20448;-75
2022/01/20 05:10:18;;;;;;;18.47;13.53;;;0.70;99.90;;;;;;5154345;27;20445;-74
2022/01/20 05:13:05;;;;;;;26.03;15.83;;;0.60;99.90;;;;;;5154024;27;20456;-76
2022/01/20 05:15:33;;;;;;;26.17;13.77;;;0.70;99.90;;;;;;5153824;27;20452;-72
2022/01/20 05:18:01;;;;;;;23.23;14.23;;;0.60;99.90;;;;;;5153830;27;20510;-72
2022/01/20 05:20:29;;;;;;;21.70;13.37;;;0.60;99.90;;;;;;5153752;27;20492;-72
2022/01/20 05:22:57;;;;;;;21.10;14.23;;;0.60;99.90;;;;;;5153766;27;20809;-75
2022/01/20 05:25:24;;;;;;;33.87;15.63;;;0.50;99.90;;;;;;5153577;27;20516;-72
2022/01/20 05:27:51;;;;;;;27.90;15.50;;;0.60;99.90;;;;;;5155069;27;20440;-75
2022/01/20 05:30:18;;;;;;;29.03;16.37;;;0.60;99.90;;;;;;5157400;27;20442;-73
2022/01/20 05:32:45;;;;;;;31.63;18.70;;;0.50;99.90;;;;;;5158846;27;20448;-73
2022/01/20 05:35:12;;;;;;;26.37;17.30;;;0.70;99.90;;;;;;5162617;27;20477;-72
2022/01/20 05:37:39;;;;;;;25.10;15.40;;;0.80;99.90;;;;;;5158968;27;20850;-73
2022/01/20 05:40:09;;;;;;;30.80;17.23;;;0.80;99.90;;;;;;5153064;27;20489;-73
2022/01/20 05:42:37;;;;;;;19.70;15.50;;;0.70;99.90;;;;;;5153558;27;20445;-75
2022/01/20 05:45:06;;;;;;;28.00;17.43;;;0.80;99.90;;;;;;5153778;27;20516;-72
2022/01/20 05:47:35;;;;;;;30.43;17.13;;;0.80;99.90;;;;;;5153574;27;20445;-76
2022/01/20 05:50:02;;;;;;;24.23;14.37;;;0.90;99.90;;;;;;5153684;27;20449;-73
2022/01/20 05:52:30;;;;;;;21.03;14.20;;;0.80;99.90;;;;;;5153388;27;20510;-76
2022/01/20 05:54:57;;;;;;;31.70;15.13;;;0.90;99.90;;;;;;5153282;27;20478;-73
2022/01/20 05:57:25;;;;;;;23.87;13.43;;;1.00;99.90;;;;;;5153260;27;20935;-78
2022/01/20 05:59:52;;;;;;;29.23;15.70;;;1.10;99.90;;;;;;5153183;27;20441;-75
2022/01/20 06:02:33;;;;;;;25.13;13.30;;;0.90;99.90;;;;;;5152975;27;20486;-74
2022/01/20 06:05:00;;;;;;;24.23;14.37;;;0.90;99.90;;;;;;5152813;27;20794;-70
2022/01/20 06:07:28;;;;;;;25.30;15.70;;;1.00;99.90;;;;;;5152519;27;20453;-71
2022/01/20 06:09:55;;;;;;;26.27;14.37;;;0.90;99.90;;;;;;5152441;27;20449;-71
2022/01/20 06:12:22;;;;;;;31.97;15.77;;;0.90;99.90;;;;;;5152767;27;20988;-70
2022/01/20 06:14:51;;;;;;;19.13;13.77;;;0.70;99.90;;;;;;5133608;27;20497;-73
2022/01/20 06:17:26;;;;;;;19.37;14.20;;;0.80;99.90;;;;;;5151973;27;20926;-70
2022/01/20 06:19:53;;;;;;;26.17;13.30;;;0.90;99.90;;;;;;5152696;27;20449;-74
2022/01/20 06:22:20;;;;;;;24.57;16.23;;;0.90;99.90;;;;;;5152684;27;21329;-77
2022/01/20 06:24:47;;;;;;;27.27;17.00;;;1.00;99.90;;;;;;5152551;27;20553;-69
2022/01/20 06:27:14;;;;;;;25.00;17.33;;;0.90;99.90;;;;;;5152543;27;20446;-76
2022/01/20 06:29:41;;;;;;;25.13;18.03;;;0.80;99.90;;;;;;5151921;27;20449;-71
2022/01/20 06:32:10;;;;;;;27.77;16.60;;;0.90;99.90;;;;;;5151789;27;20501;-70
2022/01/20 06:34:37;;;;;;;29.27;19.00;;;0.90;99.90;;;;;;5152055;27;20484;-69
2022/01/20 06:37:04;;;;;;;21.17;14.70;;;0.90;99.90;;;;;;5151962;27;20437;-69
2022/01/20 06:39:31;;;;;;;31.00;16.33;;;0.90;99.90;;;;;;5151303;27;20994;-68
2022/01/20 06:41:58;;;;;;;31.90;17.70;;;0.80;99.90;;;;;;5151740;27;20544;-69
2022/01/20 06:44:25;;;;;;;29.07;18.70;;;0.80;99.90;;;;;;5151437;27;20469;-69
2022/01/20 06:46:53;;;;;;;23.30;15.90;;;0.80;99.90;;;;;;5151547;27;20510;-68
2022/01/20 06:49:21;;;;;;;22.93;15.93;;;0.90;99.90;;;;;;5150882;27;20450;-69
2022/01/20 06:51:49;;;;;;;28.30;16.20;;;0.80;99.90;;;;;;5151544;27;20445;-71
2022/01/20 06:54:17;;;;;;;24.47;16.47;;;0.90;99.90;;;;;;5151426;27;20477;-75
2022/01/20 06:56:44;;;;;;;30.47;16.77;;;1.00;99.90;;;;;;5133326;27;20538;-69
2022/01/20 06:59:12;;;;;;;23.13;13.87;;;1.00;99.90;;;;;;5151502;27;20806;-67
2022/01/20 07:01:40;;;;;;;24.63;15.83;;;0.90;99.90;;;;;;5151250;27;20477;-72
2022/01/20 07:04:08;;;;;;;26.37;13.93;;;0.80;99.90;;;;;;5151486;27;20506;-68
2022/01/20 07:06:37;;;;;;;26.43;15.00;;;0.90;99.90;;;;;;5151138;27;20489;-67
2022/01/20 07:09:04;;;;;;;28.30;16.50;;;1.00;99.90;;;;;;5151430;27;20553;-70
2022/01/20 07:11:32;;;;;;;20.03;13.17;;;1.10;99.90;;;;;;5151531;27;20442;-71
2022/01/20 07:13:59;;;;;;;25.67;15.00;;;1.20;99.90;;;;;;5151369;27;21011;-73
2022/01/20 07:16:26;;;;;;;20.67;13.30;;;1.30;99.90;;;;;;5151143;27;20458;-69
2022/01/20 07:18:53;;;;;;;25.97;14.00;;;1.50;99.90;;;;;;5151405;27;20441;-71
2022/01/20 07:21:20;;;;;;;21.97;13.13;;;1.60;99.90;;;;;;5132322;27;20484;-72
2022/01/20 07:23:49;;;;;;;21.10;13.93;;;1.80;99.90;;;;;;5151400;27;20519;-72
2022/01/20 07:26:16;;;;;;;26.93;16.00;;;2.00;99.90;;;;;;5151362;27;20552;-73
2022/01/20 07:28:44;;;;;;;32.87;14.87;;;2.20;99.20;;;;;;5151252;27;20450;-74
2022/01/20 07:31:11;;;;;;;21.30;12.83;;;2.30;98.80;;;;;;5151392;27;20552;-71
2022/01/20 07:33:38;;;;;;;19.53;13.10;;;2.40;97.70;;;;;;5151111;27;20494;-71
2022/01/20 07:36:09;;;;;;;22.17;14.23;;;2.50;97.40;;;;;;5151270;27;20947;-73
2022/01/20 07:38:36;;;;;;;22.60;13.60;;;2.70;96.90;;;;;;5150905;27;20552;-67
2022/01/20 07:41:04;;;;;;;19.50;12.93;;;2.80;95.70;;;;;;5151021;27;20488;-66
2022/01/20 07:43:31;;;;;;;23.20;15.70;;;2.80;95.70;;;;;;5151008;27;20469;-67
2022/01/20 07:45:58;;;;;;;19.47;12.13;;;2.90;95.20;;;;;;5151034;27;20514;-71
2022/01/20 07:48:26;;;;;;;23.03;13.23;;;3.00;95.00;;;;;;5151177;27;20449;-71
2022/01/20 07:50:53;;;;;;;22.60;13.80;;;3.00;95.50;;;;;;5151277;27;20505;-72
2022/01/20 07:53:20;;;;;;;23.57;14.17;;;3.30;95.30;;;;;;5150635;27;20561;-68
2022/01/20 07:55:47;;;;;;;19.70;13.53;;;3.40;95.40;;;;;;5150614;27;20504;-65
2022/01/20 07:58:15;;;;;;;23.77;14.67;;;3.70;95.20;;;;;;5150714;27;20464;-70
2022/01/20 08:00:42;;;;;;;24.17;15.50;;;3.90;94.60;;;;;;5151667;27;20457;-66
2022/01/20 08:03:09;;;;;;;23.03;14.97;;;4.00;93.50;;;;;;5155054;27;20463;-70
2022/01/20 08:05:36;;;;;;;24.97;13.73;;;4.20;93.10;;;;;;5155082;27;20449;-70
2022/01/20 08:08:03;;;;;;;24.13;12.97;;;4.30;92.60;;;;;;5146337;27;20452;-72
2022/01/20 08:10:31;;;;;;;19.17;13.33;;;4.50;91.10;;;;;;5134155;27;20460;-73
2022/01/20 08:12:58;;;;;;;23.57;13.77;;;4.80;90.50;;;;;;5134226;27;20476;-71
2022/01/20 08:15:28;;;;;;;28.63;15.33;;;4.90;90.70;;;;;;5134133;27;20443;-69
2022/01/20 08:17:55;;;;;;;19.97;13.50;;;5.00;90.50;;;;;;5134163;27;20540;-70
2022/01/20 08:20:22;;;;;;;25.97;14.60;;;4.80;90.10;;;;;;5133960;27;20454;-74
2022/01/20 08:22:49;;;;;;;24.60;15.83;;;4.90;90.30;;;;;;5134003;27;20535;-76
2022/01/20 08:25:19;;;;;;;28.10;17.60;;;5.20;89.90;;;;;;5135403;27;20472;-78
2022/01/20 08:27:47;;;;;;;29.17;16.23;;;5.60;85.40;;;;;;5140388;27;20583;-76
2022/01/20 08:30:16;;;;;;;27.23;19.33;;;5.90;82.80;;;;;;5137127;27;20510;-73
2022/01/20 08:32:46;;;;;;;33.10;17.57;;;5.80;82.40;;;;;;5141085;27;20498;-75
2022/01/20 08:35:13;;;;;;;33.60;15.13;;;5.40;83.00;;;;;;5140960;27;20567;-74
2022/01/20 08:37:45;;;;;;;22.00;14.53;;;5.00;80.60;;;;;;5134078;27;20520;-77
2022/01/20 08:40:14;;;;;;;17.33;13.10;;;4.70;81.00;;;;;;5133772;27;20529;-79
2022/01/20 08:42:41;;;;;;;22.90;14.87;;;4.60;84.40;;;;;;5134118;27;21154;-74
2022/01/20 08:45:11;;;;;;;23.10;14.27;;;4.90;82.50;;;;;;5133743;27;20969;-76
2022/01/20 08:47:38;;;;;;;24.90;14.93;;;5.10;80.70;;;;;;5133351;27;20461;-75
2022/01/20 08:50:08;;;;;;;25.40;15.60;;;5.40;81.50;;;;;;5133861;27;20806;-74
2022/01/20 08:52:35;;;;;;;23.00;15.10;;;5.70;79.40;;;;;;5133742;27;20470;-77
2022/01/20 08:55:03;;;;;;;23.23;14.47;;;5.90;81.60;;;;;;5133503;27;20485;-76
2022/01/20 08:57:30;;;;;;;28.60;15.90;;;6.20;79.20;;;;;;5133167;27;20449;-79
2022/01/20 08:59:58;;;;;;;22.80;14.60;;;6.40;77.00;;;;;;5133373;27;21893;-80
2022/01/20 09:02:25;;;;;;;26.20;15.90;;;6.60;74.30;;;;;;5133171;27;20493;-76
2022/01/20 09:04:52;;;;;;;29.83;16.50;;;6.90;75.20;;;;;;5133203;27;20885;-78
2022/01/20 09:07:20;;;;;;;26.63;14.93;;;7.30;74.40;;;;;;5133780;27;20447;-79
2022/01/20 09:09:49;;;;;;;23.00;12.67;;;7.50;72.60;;;;;;5134123;27;20454;-80
2022/01/20 09:15:27;;;;;;;22.80;13.90;;;7.80;71.30;;;;;;5133230;27;20493;-77
2022/01/20 09:15:28;;;;;;;23.97;13.67;;;7.80;69.80;;;;;;5133341;27;20988;-81
2022/01/20 09:17:55;;;;;;;24.37;14.07;;;8.00;70.90;;;;;;5118328;27;20459;-78
2022/01/20 09:20:22;;;;;;;27.10;14.77;;;8.50;69.40;;;;;;5133377;27;20466;-80
2022/01/20 09:22:51;;;;;;;27.50;14.47;;;8.70;68.40;;;;;;5133241;27;20484;-77
2022/01/20 09:25:19;;;;;;;31.37;15.23;;;9.10;67.10;;;;;;5132850;27;20818;-78
2022/01/20 09:27:47;;;;;;;21.77;15.47;;;9.20;64.80;;;;;;5132821;27;20459;-81
2022/01/20 09:30:18;;;;;;;27.30;18.83;;;9.50;63.70;;;;;;5133150;27;20446;-77
2022/01/20 09:32:57;;;;;;;26.70;15.20;;;9.80;63.00;;;;;;5133172;27;20491;-85
2022/01/20 09:35:24;;;;;;;25.70;16.57;;;9.70;59.90;;;;;;5132812;27;21021;-76
2022/01/20 09:37:52;;;;;;;27.07;14.43;;;9.60;61.20;;;;;;5132543;27;20461;-76
2022/01/20 09:40:20;;;;;;;23.90;15.53;;;9.60;61.50;;;;;;5132371;27;20969;-79
2022/01/20 09:42:47;;;;;;;24.27;15.10;;;9.90;60.80;;;;;;5133074;27;20493;-76
2022/01/20 09:45:16;;;;;;;22.27;14.57;;;10.10;58.80;;;;;;5132794;27;20470;-80
2022/01/20 09:47:44;;;;;;;24.90;18.10;;;10.20;58.80;;;;;;5132958;27;20540;-79
2022/01/20 09:50:13;;;;;;;22.43;15.70;;;10.40;58.40;;;;;;5132540;27;20459;-78
2022/01/20 09:52:40;;;;;;;26.73;16.57;;;10.60;57.50;;;;;;5132139;27;20528;-78
2022/01/20 09:55:10;;;;;;;25.33;18.00;;;10.70;55.70;;;;;;5132382;27;20467;-74
2022/01/20 09:57:37;;;;;;;23.30;16.70;;;10.60;55.80;;;;;;5132738;27;20442;-75
2022/01/20 10:00:09;;;;;;;30.10;17.53;;;10.40;55.70;;;;;;5132151;27;20446;-80
2022/01/20 10:02:36;;;;;;;25.70;15.57;;;10.40;55.60;;;;;;5131770;27;20493;-75
2022/01/20 10:05:04;;;;;;;26.00;17.10;;;10.40;56.10;;;;;;5132001;27;20470;-77
2022/01/20 10:07:35;;;;;;;24.43;15.83;;;10.30;56.30;;;;;;5132522;27;20492;-79
2022/01/20 10:10:04;;;;;;;28.33;14.90;;;10.50;55.30;;;;;;5132142;27;20457;-79
2022/01/20 10:12:34;;;;;;;23.27;14.90;;;10.60;56.00;;;;;;5132531;27;20454;-79
2022/01/20 10:15:02;;;;;;;32.30;15.03;;;10.70;54.90;;;;;;5132038;27;20484;-75
2022/01/20 10:17:31;;;;;;;36.80;18.37;;;10.50;54.80;;;;;;5132230;27;20450;-80
2022/01/20 10:20:01;;;;;;;28.27;15.37;;;10.80;55.60;;;;;;5131972;27;20506;-75
2022/01/20 10:22:30;;;;;;;29.73;15.87;;;11.10;55.00;;;;;;5131975;27;21039;-75
2022/01/20 10:25:03;;;;;;;26.13;15.70;;;11.20;53.70;;;;;;5131794;27;21096;-79
2022/01/20 10:27:32;;;;;;;26.23;16.70;;;11.30;53.80;;;;;;5132109;27;20439;-76
2022/01/20 10:30:02;;;;;;;28.53;16.80;;;11.40;53.80;;;;;;5131924;27;20462;-76
2022/01/20 10:32:40;;;;;;;23.20;14.53;;;11.40;52.40;;;;;;5131889;27;20447;-73
2022/01/20 10:35:08;;;;;;;29.80;15.33;;;11.40;53.70;;;;;;5131179;27;20485;-79
2022/01/20 10:37:35;;;;;;;29.47;15.70;;;11.60;53.80;;;;;;5131487;27;20934;-75
2022/01/20 10:40:07;;;;;;;22.10;14.60;;;12.00;52.00;;;;;;5131164;27;20482;-74
2022/01/20 10:42:41;;;;;;;23.37;16.07;;;12.00;51.20;;;;;;5131940;27;20485;-78
2022/01/20 10:45:09;;;;;;;27.80;16.00;;;11.80;52.00;;;;;;5131499;27;20963;-74
2022/01/20 10:47:39;;;;;;;32.13;14.50;;;11.90;51.80;;;;;;5131507;27;20996;-80
2022/01/20 10:50:12;;;;;;;27.97;14.87;;;12.20;51.50;;;;;;5131548;27;20938;-78
2022/01/20 10:52:43;;;;;;;28.40;15.00;;;12.40;51.50;;;;;;5131097;27;20808;-75
2022/01/20 10:55:20;;;;;;;28.07;14.33;;;12.60;51.90;;;;;;5131139;27;20831;-74
2022/01/20 10:57:49;;;;;;;26.97;14.60;;;12.90;49.60;;;;;;5131214;27;20461;-75
2022/01/20 11:00:20;;;;;;;26.00;13.17;;;13.00;50.60;;;;;;5131475;27;20454;-73
2022/01/20 11:02:54;;;;;;;26.13;12.83;;;13.50;49.50;;;;;;5130873;27;20494;-81
2022/01/20 11:05:22;;;;;;;22.43;13.80;;;13.70;47.10;;;;;;5130854;27;20477;-71
2022/01/20 11:07:51;;;;;;;22.53;13.57;;;13.60;47.60;;;;;;5131041;27;20446;-76
2022/01/20 11:10:18;;;;;;;19.27;11.53;;;13.80;48.50;;;;;;5130759;27;20833;-69
2022/01/20 11:12:46;;;;;;;30.23;13.93;;;14.00;46.80;;;;;;5130978;27;20853;-75
2022/01/20 11:15:16;;;;;;;25.90;13.17;;;14.00;46.60;;;;;;5130175;27;20487;-73
2022/01/20 11:17:45;;;;;;;21.93;13.07;;;14.00;44.80;;;;;;5130659;27;20450;-74
2022/01/20 11:20:15;;;;;;;27.53;13.83;;;13.60;44.40;;;;;;5130895;27;20863;-72
2022/01/20 11:22:54;;;;;;;25.13;13.00;;;13.50;44.90;;;;;;5131178;27;20556;-67
2022/01/20 11:25:23;;;;;;;18.63;12.60;;;13.80;46.10;;;;;;5135041;27;20931;-75
2022/01/20 11:27:53;;;;;;;27.93;13.60;;;14.10;44.00;;;;;;5138549;27;20442;-73
2022/01/20 11:30:26;;;;;;;20.37;11.70;;;14.10;44.00;;;;;;5135827;27;20447;-77
2022/01/20 11:33:01;;;;;;;28.13;13.60;;;14.00;44.30;;;;;;5112621;28;20453;-75
2022/01/20 11:35:43;;;;;;;24.17;12.97;;;14.50;44.80;;;;;;5130986;27;20453;-76
2022/01/20 11:38:12;;;;;;;10.97;8.00;;;14.80;42.80;;;;;;5130940;27;20484;-76
2022/01/20 11:40:54;;;;;;;9.23;3.63;;;14.80;39.80;;;;;;5130967;28;20442;-74
2022/01/20 11:43:34;;;;;;;5.97;2.77;;;14.90;36.90;;;;;;5130837;28;20494;-75
2022/01/20 11:46:17;;;;;;;10.53;2.87;;;15.30;35.20;;;;;;5131127;28;20528;-74
2022/01/20 11:48:58;;;;;;;4.30;2.20;;;15.10;35.70;;;;;;5130995;28;20587;-75
2022/01/20 11:51:25;;;;;;;8.13;2.90;;;15.00;34.80;;;;;;5130878;28;20535;-75
2022/01/20 11:53:58;;;;;;;6.50;2.87;;;15.00;34.60;;;;;;5130431;28;20470;-76
2022/01/20 11:56:30;;;;;;;7.43;2.60;;;15.20;34.80;;;;;;5130603;28;20446;-76
2022/01/20 11:58:57;;;;;;;5.33;2.30;;;15.20;34.30;;;;;;5130653;28;20454;-78
2022/01/20 12:01:28;;;;;;;6.03;2.50;;;15.20;34.80;;;;;;5130346;28;20450;-75
2022/01/20 12:03:56;;;;;;;6.60;2.50;;;15.50;34.20;;;;;;5130358;28;20573;-78
2022/01/20 12:06:25;;;;;;;10.27;3.60;;;15.80;34.60;;;;;;5130500;28;20466;-75
2022/01/20 12:08:57;;;;;;;8.17;2.83;;;16.30;34.40;;;;;;5130535;28;20949;-73
2022/01/20 12:11:36;;;;;;;6.00;2.70;;;16.50;33.40;;;;;;5130420;28;20462;-75
2022/01/20 12:14:03;;;;;;;5.97;2.77;;;16.60;33.30;;;;;;5130433;28;20553;-77
2022/01/20 12:16:32;;;;;;;5.80;2.60;;;16.60;32.70;;;;;;5130003;28;20465;-74
2022/01/20 12:19:01;;;;;;;7.20;2.60;;;16.50;32.80;;;;;;5130475;28;20450;-77
2022/01/20 12:21:31;;;;;;;6.27;2.50;;;16.30;33.40;;;;;;5130346;28;20453;-75
2022/01/20 12:24:00;;;;;;;8.80;3.00;;;16.10;33.10;;;;;;5130356;28;20580;-77
2022/01/20 12:26:27;;;;;;;11.40;3.50;;;15.50;32.80;;;;;;5129517;28;20875;-77
2022/01/20 12:29:06;;;;;;;5.90;3.33;;;15.30;33.80;;;;;;5129855;28;20787;-76
2022/01/20 12:31:47;;;;;;;8.93;3.07;;;15.40;34.10;;;;;;5129932;28;20744;-75
2022/01/20 12:34:14;;;;;;;5.53;2.10;;;14.80;35.30;;;;;;5129752;28;20470;-75
2022/01/20 12:36:41;;;;;;;6.20;2.20;;;15.00;36.10;;;;;;5130072;28;20468;-76
2022/01/20 12:39:11;;;;;;;6.07;2.73;;;15.40;36.60;;;;;;5129570;28;20485;-79
2022/01/20 12:41:38;;;;;;;5.47;3.03;;;15.10;35.40;;;;;;5130217;28;20569;-75
2022/01/20 12:44:06;;;;;;;5.90;2.37;;;15.00;35.50;;;;;;5129956;28;20573;-76
2022/01/20 12:46:37;;;;;;;7.23;2.50;;;14.70;35.80;;;;;;5130540;27;20450;-74
2022/01/20 12:49:08;;;;;;;5.50;2.23;;;14.90;36.70;;;;;;5133555;27;20484;-63
2022/01/20 12:51:38;;;;;;;4.40;2.20;;;14.90;37.50;;;;;;5133420;27;20537;-68
2022/01/20 12:54:11;;;;;;;7.27;3.10;;;15.10;37.20;;;;;;5133282;27;20466;-70
2022/01/20 12:56:40;;;;;;;8.73;2.00;;;15.00;36.80;;;;;;5133402;27;20452;-68
2022/01/20 12:59:09;;;;;;;3.83;1.90;;;14.80;37.90;;;;;;5133345;27;20510;-70
2022/01/20 13:01:45;;;;;;;6.10;2.43;;;14.60;37.90;;;;;;5133338;27;20450;-68
2022/01/20 13:04:14;;;;;;;6.00;2.50;;;14.70;38.10;;;;;;5132337;27;20841;-69
2022/01/20 13:06:50;;;;;;;5.53;2.47;;;14.50;38.00;;;;;;5132723;27;20549;-68
2022/01/20 13:09:18;;;;;;;6.93;2.70;;;14.70;39.10;;;;;;5133204;27;20453;-68
2022/01/20 13:11:53;;;;;;;10.90;3.00;;;15.20;37.70;;;;;;5133319;27;20483;-68
2022/01/20 13:14:22;;;;;;;7.30;2.90;;;15.30;37.20;;;;;;5132699;27;20466;-69
2022/01/20 13:16:56;;;;;;;5.93;2.57;;;15.90;37.40;;;;;;5132880;27;20454;-70
2022/01/20 13:19:34;;;;;;;7.50;2.33;;;15.80;36.70;;;;;;5132928;27;20450;-69
2022/01/20 13:22:01;;;;;;;5.40;2.30;;;15.90;37.50;;;;;;5132808;27;20536;-68
2022/01/20 13:24:30;;;;;;;8.60;2.60;;;16.30;36.70;;;;;;5132608;27;20514;-68
2022/01/20 13:26:58;;;;;;;5.07;2.67;;;16.50;36.70;;;;;;5132345;27;20450;-68